Terminal Aerodrome Forecast
Issued by NWS

Home | Current Version | Previous Version | Text Only | Print | Product List | Glossary On
Versions: 1 2 3 4 5 6 7 8 9 10 11 12 13 14 15 16
000
FTUS46 KHNX 292337
TAFVIS
TAF
KVIS 292337Z 3000/3024 VRB03KT 3SM HZ BKN200
     FM300600 VRB03KT 1/2SM FG OVC003
     FM300800 VRB03KT 1/4SM FG OVC001
     FM301900 17002KT 1SM BR OVC004
     FM302100 18002KT 3SM HZ SCT250=

USA.gov is the U.S. government's official web portal to all federal, state and local government web resources and services.